Time;durP1;ratioP1;P1;durP2;ratioP2;P2;SDS_P1;SDS_P2;PMS_P1;PMS_P2;Temp;Humidity;BMP_temperature;BMP_pressure;BME280_temperature;BME280_humidity;BME280_pressure;Samples;Min_cycle;Max_cycle;Signal;HPM_P1;HPM_P2
2021/03/27 00:01:50;;;;;;;5.38;4.00;;;12.70;53.80;;;12.99;45.30;97560.22;5028509;28;20220;-37
2021/03/27 00:04:40;;;;;;;6.28;3.63;;;12.80;53.80;;;13.00;45.66;97564.53;5043899;28;20563;-37
2021/03/27 00:07:36;;;;;;;5.00;4.03;;;12.80;53.90;;;12.99;45.46;97564.75;5045846;28;20048;-37
2021/03/27 00:10:15;;;;;;;8.48;4.60;;;12.80;54.10;;;12.99;45.47;97568.25;5026620;28;20060;-37
2021/03/27 00:13:06;;;;;;;8.23;4.85;;;12.80;53.90;;;12.96;45.78;97559.75;5044476;28;20065;-37
2021/03/27 00:15:54;;;;;;;7.07;4.72;;;12.80;54.20;;;12.88;46.58;97565.97;5028181;28;20059;-37
2021/03/27 00:19:15;;;;;;;6.53;4.25;;;12.70;54.70;;;12.86;46.58;97553.81;5011887;28;20049;-37
2021/03/27 00:21:49;;;;;;;7.35;5.38;;;12.70;55.50;;;12.82;46.83;97556.00;5024689;28;20242;-37
2021/03/27 00:24:33;;;;;;;5.63;4.07;;;12.60;55.00;;;12.85;46.51;97526.25;5044652;28;20048;-37
2021/03/27 00:27:04;;;;;;;;;;;12.70;55.10;;;12.85;47.04;97512.06;5029728;28;20071;-37
2021/03/27 00:29:47;;;;;;;7.68;4.90;;;12.70;56.30;;;12.88;46.95;97520.56;5044396;28;19925;-37
2021/03/27 00:32:28;;;;;;;9.27;4.80;;;12.70;56.00;;;12.84;47.59;97516.59;5025998;28;20057;-37
2021/03/27 00:35:00;;;;;;;8.63;4.43;;;12.70;56.70;;;12.83;47.33;97514.09;5044875;28;20045;-37
2021/03/27 00:37:31;;;;;;;10.85;4.03;;;12.60;56.10;;;12.80;47.61;97515.28;5026536;28;20051;-37
2021/03/27 00:40:22;;;;;;;7.80;4.15;;;12.60;56.40;;;12.79;48.06;97518.97;5027054;28;20048;-37
2021/03/27 00:43:17;;;;;;;6.82;3.58;;;12.50;56.80;;;12.75;48.15;97523.81;5027856;28;20538;-37
2021/03/27 00:45:52;;;;;;;4.75;3.33;;;12.60;57.00;;;12.73;48.29;97522.34;5030765;28;20053;-37
2021/03/27 00:48:40;;;;;;;5.22;3.75;;;12.60;56.90;;;12.69;48.97;97534.41;5014543;28;20258;-38
2021/03/27 00:51:18;;;;;;;4.55;3.67;;;12.50;58.00;;;12.66;48.89;97524.91;5029611;28;20060;-37
2021/03/27 00:54:21;;;;;;;6.22;3.90;;;12.50;57.90;;;12.65;48.92;97523.22;5031621;28;20358;-37
2021/03/27 00:57:16;;;;;;;7.43;4.07;;;12.50;58.10;;;12.61;49.35;97519.25;4990596;28;20060;-37
2021/03/27 01:00:20;;;;;;;6.63;4.43;;;12.40;59.30;;;12.57;50.22;97525.97;5027916;28;20057;-38
2021/03/27 01:03:19;;;;;;;6.47;3.90;;;12.40;59.90;;;12.57;49.84;97512.59;5048043;28;20084;-37
2021/03/27 01:06:32;;;;;;;5.88;3.63;;;12.40;58.90;;;12.56;49.98;97514.47;5018821;28;20059;-37
2021/03/27 01:09:15;;;;;;;5.70;3.60;;;12.40;59.30;;;12.56;49.45;97518.94;5049396;28;20036;-37
2021/03/27 01:12:27;;;;;;;6.20;3.92;;;12.40;58.70;;;12.58;49.86;97507.09;5032679;28;20052;-37
2021/03/27 01:15:22;;;;;;;5.55;3.20;;;12.40;58.90;;;12.61;49.68;97514.72;5032450;28;20055;-37
2021/03/27 01:18:20;;;;;;;5.00;3.45;;;12.50;58.90;;;12.64;49.50;97521.59;5033008;28;20053;-37
2021/03/27 01:20:56;;;;;;;6.00;3.78;;;12.50;58.90;;;12.66;49.94;97530.25;5031363;28;20056;-37
2021/03/27 01:23:25;;;;;;;4.45;3.08;;;12.50;58.50;;;12.64;49.74;97528.75;5029760;28;20068;-37
2021/03/27 01:26:04;;;;;;;4.28;3.10;;;12.50;58.40;;;12.65;49.84;97522.41;5030160;28;20054;-37
2021/03/27 01:28:44;;;;;;;4.57;3.20;;;12.60;58.70;;;12.66;50.46;97537.41;5029783;28;20057;-37
2021/03/27 01:31:41;;;;;;;5.38;3.45;;;12.50;59.40;;;12.66;50.72;97538.25;5030245;28;20055;-37
2021/03/27 01:34:29;;;;;;;6.32;3.20;;;12.60;60.00;;;12.63;50.89;97533.25;5046560;28;20076;-38
2021/03/27 01:37:42;;;;;;;5.05;3.60;;;12.50;60.60;;;12.57;52.93;97542.81;5012835;28;20067;-37
2021/03/27 01:41:04;;;;;;;6.32;3.00;;;12.50;63.40;;;12.48;54.24;97564.41;5014306;28;20084;-37
2021/03/27 01:43:52;;;;;;;5.00;3.78;;;12.40;63.60;;;12.51;52.48;97562.22;5045865;28;20072;-36
2021/03/27 01:46:40;;;;;;;5.65;3.38;;;12.30;63.10;;;12.50;53.32;97565.03;5031549;28;20072;-36
2021/03/27 01:49:26;;;;;;;5.60;3.60;;;12.30;64.60;;;12.47;53.64;97568.91;5027399;28;20362;-37
2021/03/27 01:52:15;;;;;;;4.25;3.78;;;12.30;65.60;;;12.39;55.63;97559.09;5048161;28;20051;-37
2021/03/27 01:55:18;;;;;;;4.03;3.05;;;12.20;68.30;;;12.31;55.51;97571.66;5046102;28;20060;-37
2021/03/27 01:58:04;;;;;;;5.53;3.20;;;12.10;68.20;;;12.30;54.44;97573.50;5029038;28;20048;-37
2021/03/27 02:00:49;;;;;;;5.57;3.22;;;12.10;68.00;;;12.30;54.96;97578.00;5030254;28;20071;-37
2021/03/27 02:03:27;;;;;;;5.97;3.60;;;11.90;67.30;;;12.26;55.04;97582.84;5030361;28;20072;-37
2021/03/27 02:06:11;;;;;;;5.32;3.15;;;12.00;66.40;;;12.20;56.24;97581.72;5028024;28;20053;-37
2021/03/27 02:09:06;;;;;;;3.07;2.53;;;12.00;68.60;;;12.13;57.30;97570.03;5025554;28;20051;-37
2021/03/27 02:11:52;;;;;;;4.57;2.65;;;11.90;69.40;;;12.16;55.56;97551.03;5038188;28;20055;-37
2021/03/27 02:14:41;;;;;;;5.40;2.88;;;11.90;67.60;;;12.16;55.93;97574.22;5044933;28;20059;-37
2021/03/27 02:17:40;;;;;;;4.13;3.20;;;11.90;67.80;;;12.10;57.31;97564.25;5023945;28;20715;-36
2021/03/27 02:20:38;;;;;;;4.03;2.60;;;11.90;70.30;;;12.08;56.27;97568.91;5041957;28;20049;-36
2021/03/27 02:23:22;;;;;;;4.82;3.10;;;11.80;70.60;;;12.05;56.43;97578.09;5036962;28;20055;-36
2021/03/27 02:26:23;;;;;;;5.32;3.40;;;11.80;69.90;;;12.04;57.11;97573.78;5026520;28;20051;-37
2021/03/27 02:29:31;;;;;;;4.03;2.83;;;11.80;69.40;;;12.01;56.88;97571.44;5040130;28;20051;-37
2021/03/27 02:32:44;;;;;;;5.05;3.25;;;11.70;70.10;;;11.95;57.80;97570.28;5011309;28;20079;-37
2021/03/27 02:35:21;;;;;;;3.78;2.78;;;11.60;70.30;;;11.93;57.19;97566.97;5026135;28;20048;-37
2021/03/27 02:38:25;;;;;;;4.90;2.80;;;11.60;70.30;;;11.88;58.21;97573.78;5025673;28;20048;-36
2021/03/27 02:41:50;;;;;;;3.70;2.67;;;11.60;71.60;;;11.83;57.92;97560.97;5027647;28;20055;-36
2021/03/27 02:44:57;;;;;;;4.65;2.90;;;11.60;72.00;;;11.81;58.41;97566.47;4964550;28;20357;-37
2021/03/27 02:47:54;;;;;;;6.23;4.00;;;11.50;72.90;;;11.82;58.25;97567.28;4983839;28;20376;-38
2021/03/27 02:50:43;;;;;;;4.90;3.50;;;11.50;72.30;;;11.79;58.50;97563.13;5010442;28;20339;-38
2021/03/27 02:53:55;;;;;;;6.63;3.80;;;11.50;72.60;;;11.79;57.46;97557.81;5025435;28;20049;-38
2021/03/27 02:56:48;;;;;;;4.77;3.30;;;11.50;71.20;;;11.75;57.90;97575.16;5024216;28;20148;-38
2021/03/27 02:59:46;;;;;;;7.73;3.70;;;11.50;72.10;;;11.65;59.08;97573.66;5024991;28;20252;-38
2021/03/27 03:02:34;;;;;;;4.40;3.40;;;11.40;73.50;;;11.67;57.56;97575.19;5025292;28;20599;-37
2021/03/27 03:05:31;;;;;;;5.50;3.30;;;11.30;71.50;;;11.65;58.29;97566.53;5024328;28;20041;-37
2021/03/27 03:08:11;;;;;;;5.10;3.50;;;11.40;73.00;;;11.61;59.09;97568.69;5024375;28;20115;-37
2021/03/27 03:10:49;;;;;;;5.47;3.10;;;11.40;72.50;;;11.65;58.26;97571.00;5024788;28;20058;-37
2021/03/27 03:13:34;;;;;;;6.57;4.43;;;11.40;72.10;;;11.61;57.89;97579.34;5025549;28;20079;-37
2021/03/27 03:16:07;;;;;;;3.93;3.03;;;11.30;71.30;;;11.63;58.04;97590.69;5026326;28;20037;-37
2021/03/27 03:19:04;;;;;;;5.70;3.00;;;11.40;71.00;;;11.64;58.38;97607.50;5024357;28;20373;-37
2021/03/27 03:22:03;;;;;;;5.37;3.00;;;11.40;71.20;;;11.60;58.45;97627.50;5024022;28;20361;-37
2021/03/27 03:24:52;;;;;;;5.20;3.10;;;11.40;72.20;;;11.54;59.75;97650.34;4995621;28;20063;-37
2021/03/27 03:27:43;;;;;;;5.77;3.27;;;11.20;73.90;;;11.33;61.91;97679.31;5007958;28;20061;-37
2021/03/27 03:30:25;;;;;;;4.40;2.50;;;11.10;76.10;;;10.71;61.66;97728.44;5021829;28;20055;-37
2021/03/27 03:32:59;;;;;;;3.13;2.03;;;10.50;77.10;;;9.96;62.83;97725.47;5024484;28;20057;-37
2021/03/27 03:36:07;;;;;;;2.35;1.65;;;9.40;78.90;;;9.72;62.70;97710.19;5024338;28;20059;-37
2021/03/27 03:39:16;;;;;;;2.43;1.53;;;9.20;81.60;;;9.53;62.91;97711.19;5024638;28;20360;-37
2021/03/27 03:42:02;;;;;;;2.03;1.40;;;9.00;78.80;;;9.53;63.45;97719.16;5023005;28;20057;-37
2021/03/27 03:44:52;;;;;;;1.53;1.20;;;9.10;80.20;;;9.58;61.91;97719.56;5025752;28;20045;-37
2021/03/27 03:48:02;;;;;;;2.07;1.17;;;9.20;78.80;;;9.50;61.99;97730.94;5024015;28;20045;-37
2021/03/27 03:51:10;;;;;;;1.80;1.50;;;9.10;77.30;;;9.15;63.50;97745.00;5006886;28;20504;-37
2021/03/27 03:54:03;;;;;;;2.20;1.07;;;8.80;78.70;;;9.12;62.95;97751.47;5003144;28;20065;-36
2021/03/27 03:56:38;;;;;;;1.83;1.13;;;8.80;77.40;;;8.99;62.79;97756.31;5024223;28;20250;-37
2021/03/27 03:59:15;;;;;;;1.33;0.83;;;8.60;78.10;;;8.73;62.86;97764.97;5007957;28;20061;-37
2021/03/27 04:02:15;;;;;;;1.30;1.10;;;8.40;77.80;;;8.72;63.65;97773.88;5024894;28;20388;-38
2021/03/27 04:04:49;;;;;;;2.13;1.23;;;8.40;78.90;;;8.79;62.96;97782.13;5023609;28;20048;-37
2021/03/27 04:07:32;;;;;;;2.67;1.20;;;8.40;78.10;;;8.65;62.81;97789.56;5021870;28;20114;-36
2021/03/27 04:10:15;;;;;;;2.30;1.00;;;8.30;77.60;;;8.76;62.63;97804.50;5023694;28;20060;-37
2021/03/27 04:13:13;;;;;;;1.27;0.80;;;8.50;77.40;;;8.48;62.34;97807.09;5025190;28;20075;-37
2021/03/27 04:15:55;;;;;;;1.53;1.40;;;8.20;76.20;;;8.52;61.76;97797.03;5024778;28;20052;-37
2021/03/27 04:18:51;;;;;;;1.40;1.20;;;8.20;76.30;;;8.64;62.58;97818.91;5025597;28;20615;-37
2021/03/27 04:21:35;;;;;;;2.07;1.37;;;8.40;77.00;;;8.33;62.72;97828.88;5026134;28;20053;-37
2021/03/27 04:24:13;;;;;;;4.75;2.70;;;8.10;76.10;;;8.37;61.65;97815.16;5027125;28;20053;-37
2021/03/27 04:26:55;;;;;;;3.03;1.10;;;8.00;76.40;;;8.36;62.16;97837.38;5026584;28;20054;-37
2021/03/27 04:29:52;;;;;;;1.30;1.03;;;8.00;75.80;;;8.36;61.38;97829.44;5026685;28;20057;-37
2021/03/27 04:32:37;;;;;;;4.10;2.60;;;8.00;74.40;;;8.20;60.58;97835.31;5027203;28;20056;-37
2021/03/27 04:35:11;;;;;;;1.10;0.80;;;7.90;74.90;;;7.68;61.29;97848.84;5027022;28;20059;-37
2021/03/27 04:37:52;;;;;;;2.53;1.35;;;7.40;74.10;;;7.96;61.69;97849.00;5027136;28;20067;-37
2021/03/27 04:40:31;;;;;;;2.20;1.20;;;7.60;74.70;;;7.56;61.24;97854.41;5026196;28;20053;-37
2021/03/27 04:43:38;;;;;;;0.93;0.80;;;7.40;74.80;;;7.45;61.81;97872.09;5026360;28;20052;-37
2021/03/27 04:46:37;;;;;;;0.83;0.63;;;7.20;76.10;;;7.37;61.81;97871.13;5026296;28;20266;-37
2021/03/27 04:49:54;;;;;;;0.73;0.63;;;7.10;75.40;;;7.03;62.32;97872.25;5025697;28;20079;-37
2021/03/27 04:52:37;;;;;;;1.37;1.20;;;6.90;75.30;;;6.97;62.65;97885.19;5007430;28;20347;-37
2021/03/27 04:55:27;;;;;;;1.13;1.00;;;6.80;76.40;;;6.95;63.15;97895.06;5026415;28;20041;-37
2021/03/27 04:58:13;;;;;;;1.13;1.00;;;6.80;76.30;;;6.96;63.17;97904.66;5026547;28;20045;-37
2021/03/27 05:00:46;;;;;;;1.00;0.90;;;6.80;76.90;;;6.85;63.57;97913.53;5025688;28;20057;-37
2021/03/27 05:03:36;;;;;;;0.83;0.83;;;6.70;76.70;;;6.87;63.42;97936.25;5026712;28;20354;-37
2021/03/27 05:06:22;;;;;;;1.20;0.93;;;6.70;76.70;;;6.81;62.83;97950.00;5028011;28;20056;-37
2021/03/27 05:09:20;;;;;;;1.70;1.20;;;6.70;75.60;;;6.72;62.50;97953.44;5028224;28;20083;-37
2021/03/27 05:12:07;;;;;;;1.27;0.93;;;6.50;75.70;;;6.92;62.38;97970.28;5027363;28;20057;-36
2021/03/27 05:15:19;;;;;;;1.20;0.90;;;6.80;75.10;;;6.86;62.20;97973.44;5027042;28;20071;-37
2021/03/27 05:17:46;;;;;;;1.33;0.97;;;6.70;75.10;;;6.99;62.04;97991.78;5026368;28;20060;-37
2021/03/27 05:20:38;;;;;;;1.20;0.60;;;6.90;75.20;;;7.07;61.93;97994.59;5026545;28;20052;-36
2021/03/27 05:23:22;;;;;;;0.73;0.73;;;6.80;75.30;;;7.23;61.95;98008.22;5028630;28;20057;-37
2021/03/27 05:26:20;;;;;;;0.80;0.80;;;7.00;74.60;;;7.23;62.01;98015.31;5027378;28;20049;-37
2021/03/27 05:29:21;;;;;;;2.53;1.10;;;7.00;75.20;;;7.09;62.29;98029.72;5028711;28;20343;-37
2021/03/27 05:32:16;;;;;;;1.70;1.17;;;6.80;76.10;;;7.19;62.64;98049.19;5111602;22;20368;-37
2021/03/27 05:34:52;;;;;;;1.90;1.13;;;6.90;76.60;;;7.21;62.42;98052.53;5036693;28;20048;-38
2021/03/27 05:37:43;;;;;;;1.07;0.97;;;6.90;76.10;;;7.03;63.05;98057.56;5047151;28;20037;-38
2021/03/27 05:40:25;;;;;;;1.17;1.00;;;6.90;76.40;;;7.12;63.21;98065.72;5046547;28;20053;-38
2021/03/27 05:43:24;;;;;;;1.73;1.37;;;6.80;76.40;;;7.00;61.63;98071.06;5046191;28;20262;-39
2021/03/27 05:46:28;;;;;;;0.80;0.80;;;6.80;75.60;;;6.95;60.50;98077.72;5045988;28;20377;-38
2021/03/27 05:49:38;;;;;;;2.10;1.20;;;6.70;74.30;;;6.65;60.99;98081.91;5046599;28;20060;-38
2021/03/27 05:52:08;;;;;;;1.93;1.33;;;6.50;73.00;;;6.52;61.60;98083.91;5045766;28;20067;-38
2021/03/27 05:55:21;;;;;;;1.23;1.10;;;6.30;74.60;;;6.46;61.72;98082.59;5047456;28;20049;-38
2021/03/27 05:58:22;;;;;;;1.10;1.00;;;6.30;74.50;;;6.68;60.76;98097.53;5045261;28;20045;-38
2021/03/27 06:00:53;;;;;;;1.47;1.23;;;6.40;74.00;;;6.87;61.08;98105.66;5047618;28;20067;-38
2021/03/27 06:03:55;;;;;;;1.40;1.20;;;6.60;73.20;;;6.57;60.31;98106.38;5047451;28;20119;-38
2021/03/27 06:06:29;;;;;;;2.33;1.10;;;6.50;72.20;;;6.47;61.16;98103.59;5044901;28;20057;-38
2021/03/27 06:09:20;;;;;;;1.50;1.40;;;6.30;73.30;;;6.57;61.07;98118.72;5029540;28;20219;-38
2021/03/27 06:12:15;;;;;;;2.03;1.20;;;6.40;72.60;;;6.57;60.97;98129.31;5046296;28;20055;-38
2021/03/27 06:15:10;;;;;;;3.10;0.93;;;6.40;73.10;;;6.42;61.42;98140.19;5045717;28;20067;-38
2021/03/27 06:18:02;;;;;;;4.50;0.90;;;6.30;73.80;;;6.46;61.42;98146.91;5046115;28;20075;-38
2021/03/27 06:20:49;;;;;;;1.37;1.17;;;6.20;73.10;;;6.40;60.11;98155.34;5045048;28;20045;-39
2021/03/27 06:23:54;;;;;;;4.10;1.33;;;6.30;71.70;;;6.38;60.46;98154.63;5046008;28;20250;-37
2021/03/27 06:26:36;;;;;;;1.00;0.90;;;6.30;71.00;;;6.48;60.71;98163.50;5030532;28;20041;-40
2021/03/27 06:29:24;;;;;;;1.70;1.40;;;6.30;71.60;;;6.44;59.79;98156.78;5045840;28;20051;-38
2021/03/27 06:32:14;;;;;;;2.43;1.00;;;6.30;71.10;;;6.41;60.31;98177.31;5028930;28;20053;-38
2021/03/27 06:35:00;;;;;;;1.40;0.60;;;6.30;71.70;;;6.27;60.98;98170.50;5029109;28;20115;-38
2021/03/27 06:37:31;;;;;;;2.27;1.17;;;6.20;72.30;;;6.43;60.26;98167.47;5028356;28;20044;-38
2021/03/27 06:40:48;;;;;;;2.73;1.00;;;6.30;71.90;;;6.45;59.86;98163.72;5045099;28;20055;-38
2021/03/27 06:43:50;;;;;;;1.60;1.10;;;6.40;71.10;;;6.47;60.12;98167.09;5027486;28;20069;-38
2021/03/27 06:46:54;;;;;;;1.63;1.00;;;6.50;70.60;;;6.61;60.01;98184.53;5046529;28;20045;-38
2021/03/27 06:50:05;;;;;;;1.33;1.10;;;6.50;70.70;;;6.70;60.09;98198.81;5046367;28;20052;-36
2021/03/27 06:52:43;;;;;;;2.10;1.50;;;6.60;70.90;;;6.66;59.90;98200.03;5031070;28;20491;-36
2021/03/27 06:55:50;;;;;;;1.93;1.47;;;6.50;71.20;;;6.81;60.43;98211.19;5046353;28;20386;-36
2021/03/27 06:58:34;;;;;;;4.03;1.83;;;6.60;72.80;;;6.76;61.78;98216.00;5023581;28;20270;-36
2021/03/27 07:01:42;;;;;;;1.57;1.10;;;6.60;73.30;;;6.60;61.25;98225.16;5027103;28;20224;-37
2021/03/27 07:04:27;;;;;;;1.93;1.10;;;6.40;73.90;;;6.48;61.20;98234.91;5046789;28;20055;-36
2021/03/27 07:07:27;;;;;;;1.53;1.43;;;6.10;75.60;;;6.15;63.08;98219.06;5044376;28;20060;-36
2021/03/27 07:10:08;;;;;;;3.77;1.60;;;5.90;75.20;;;6.35;61.16;98222.78;5037573;28;20061;-37
2021/03/27 07:12:38;;;;;;;6.17;1.50;;;6.20;73.10;;;6.47;58.48;98235.84;5045888;28;20056;-37
2021/03/27 07:15:39;;;;;;;3.87;1.07;;;6.40;68.10;;;6.65;57.96;98228.28;5046037;28;20239;-37
2021/03/27 07:19:19;;;;;;;3.87;2.10;;;6.60;66.60;;;6.78;55.50;98211.41;5027700;28;20072;-36
2021/03/27 07:22:07;;;;;;;3.10;1.10;;;6.80;65.30;;;6.73;54.65;98208.28;4983103;28;20058;-36
2021/03/27 07:25:11;;;;;;;1.67;0.83;;;6.80;63.00;;;6.97;55.24;98216.91;5024351;28;20055;-36
2021/03/27 07:28:13;;;;;;;2.22;0.80;;;6.90;62.70;;;6.88;53.13;98221.16;5044681;28;20051;-37
2021/03/27 07:31:19;;;;;;;1.87;1.30;;;7.00;60.50;;;6.69;52.31;98202.44;5045068;28;20053;-36
2021/03/27 07:33:55;;;;;;;;;;;6.80;59.50;;;6.89;51.86;98224.63;5027392;28;20063;-36
2021/03/27 07:36:52;;;;;;;1.60;0.70;;;6.90;59.10;;;6.92;50.78;98226.19;5043757;28;19924;-36
2021/03/27 07:39:31;;;;;;;1.53;1.00;;;7.00;59.40;;;6.84;51.66;98222.38;5031149;28;20052;-36
2021/03/27 07:42:34;;;;;;;1.77;1.00;;;6.90;58.50;;;6.76;49.90;98250.41;5043583;28;20045;-36
2021/03/27 07:45:38;;;;;;;1.90;1.00;;;6.80;56.80;;;6.93;51.34;98235.81;5042020;28;20052;-36
2021/03/27 07:49:02;;;;;;;1.60;0.87;;;7.00;58.50;;;6.99;49.72;98237.97;5043719;28;20060;-36
2021/03/27 07:52:11;;;;;;;1.27;0.93;;;7.00;55.90;;;7.14;50.40;98239.38;5029538;28;20600;-37
2021/03/27 07:55:06;;;;;;;3.17;1.40;;;7.10;57.30;;;7.05;49.61;98238.31;5032808;28;20049;-37
2021/03/27 07:58:13;;;;;;;3.07;1.50;;;7.20;56.20;;;7.20;47.85;98256.56;5033970;28;20040;-36
2021/03/27 08:01:10;;;;;;;2.10;1.50;;;7.30;54.40;;;7.28;49.16;98260.25;5035967;28;20261;-36
2021/03/27 08:04:23;;;;;;;0.93;0.83;;;7.30;54.30;;;7.27;48.15;98263.88;5051059;28;20057;-36
2021/03/27 08:06:56;;;;;;;0.90;0.70;;;7.40;55.00;;;7.41;47.59;98276.00;5034645;28;20370;-36
2021/03/27 08:10:07;;;;;;;2.37;1.13;;;7.50;53.50;;;7.54;46.29;98274.97;5051339;28;20250;-36
2021/03/27 08:13:01;;;;;;;2.33;0.83;;;7.70;54.40;;;7.68;47.19;98270.22;5049994;28;20051;-36
2021/03/27 08:16:19;;;;;;;3.60;1.63;;;7.80;53.80;;;7.60;45.70;98278.00;5033450;28;20056;-36
2021/03/27 08:18:53;;;;;;;2.00;1.27;;;7.80;52.20;;;7.66;47.15;98293.38;5039026;28;20036;-36
2021/03/27 08:22:13;;;;;;;1.83;1.02;;;7.80;53.70;;;7.84;47.66;98288.34;5051138;28;20044;-36
2021/03/27 08:25:01;;;;;;;1.53;1.13;;;8.00;53.60;;;8.07;46.49;98282.94;5050801;28;20380;-36
2021/03/27 08:28:21;;;;;;;1.57;0.87;;;8.30;52.50;;;8.10;43.89;98277.34;5049568;28;20061;-37
2021/03/27 08:31:40;;;;;;;3.10;1.13;;;8.40;49.80;;;8.11;45.00;98291.47;5048789;28;20063;-36
2021/03/27 08:34:16;;;;;;;1.73;0.83;;;8.30;50.70;;;8.29;46.57;98298.69;5049914;28;20052;-36
2021/03/27 08:37:20;;;;;;;3.63;1.00;;;8.40;51.60;;;8.32;45.76;98291.44;5050044;28;20064;-36
2021/03/27 08:40:47;;;;;;;1.85;1.23;;;8.50;51.40;;;8.48;46.14;98305.09;5035826;28;20049;-36
2021/03/27 08:43:20;;;;;;;1.43;1.30;;;8.60;51.60;;;8.31;45.90;98306.50;5050021;28;20049;-36
2021/03/27 08:46:44;;;;;;;3.03;1.55;;;8.40;51.80;;;8.36;46.27;98304.31;5050173;28;20071;-35
2021/03/27 08:50:02;;;;;;;1.43;1.10;;;8.30;53.00;;;8.51;46.34;98334.06;5050823;28;20052;-36
2021/03/27 08:52:44;;;;;;;1.57;0.87;;;8.50;52.00;;;8.47;45.65;98322.84;5035570;28;20057;-35
2021/03/27 08:55:33;;;;;;;1.33;1.07;;;8.50;52.10;;;8.50;45.79;98324.41;5050235;28;20057;-36
2021/03/27 08:58:42;;;;;;;1.70;0.80;;;8.40;52.70;;;8.44;45.28;98338.19;5050960;28;20056;-35
2021/03/27 09:01:32;;;;;;;1.47;0.83;;;8.20;52.00;;;8.37;46.60;98323.72;5048380;28;20374;-36
2021/03/27 09:04:42;;;;;;;1.80;0.80;;;8.10;53.90;;;8.29;45.83;98333.16;5033640;28;20052;-36
2021/03/27 09:07:46;;;;;;;1.00;0.80;;;8.10;52.10;;;8.30;44.82;98342.00;5046859;28;20055;-36
2021/03/27 09:11:00;;;;;;;1.95;0.90;;;8.20;52.30;;;8.36;45.42;98335.31;5027878;28;20056;-36
2021/03/27 09:14:21;;;;;;;1.97;0.70;;;8.30;52.10;;;8.03;43.68;98334.53;5040017;28;20071;-36
2021/03/27 09:17:16;;;;;;;3.30;0.87;;;8.00;49.30;;;8.14;43.77;98330.97;5046030;28;20074;-36
2021/03/27 09:20:30;;;;;;;1.30;0.70;;;8.10;49.70;;;8.23;43.51;98327.56;5031217;28;20063;-36
2021/03/27 09:23:15;;;;;;;2.10;0.93;;;8.30;50.10;;;8.26;42.63;98336.09;5047697;28;20055;-36
2021/03/27 09:26:19;;;;;;;1.40;0.70;;;8.30;48.10;;;8.26;42.51;98343.22;5044554;28;20049;-36
2021/03/27 09:29:23;;;;;;;0.88;0.63;;;8.30;48.00;;;8.09;39.86;98355.25;5046746;28;20057;-36
2021/03/27 09:32:20;;;;;;;1.00;0.67;;;8.20;44.30;;;8.03;40.06;98353.94;5052321;28;20048;-36
2021/03/27 09:35:29;;;;;;;1.20;1.07;;;8.10;44.50;;;8.03;42.14;98356.59;5080665;28;20610;-36
2021/03/27 09:38:36;;;;;;;1.40;0.80;;;8.10;47.10;;;8.01;40.44;98355.88;5081919;28;20045;-36
2021/03/27 09:41:52;;;;;;;1.83;1.10;;;8.20;45.10;;;8.05;41.50;98369.72;5064278;28;20052;-36
2021/03/27 09:45:13;;;;;;;3.83;1.43;;;8.30;46.30;;;8.07;41.38;98367.78;5047799;28;20040;-36
2021/03/27 09:48:13;;;;;;;1.20;1.10;;;8.30;46.60;;;8.19;41.00;98365.91;5030411;28;20269;-36
2021/03/27 09:51:00;;;;;;;0.73;0.60;;;8.30;47.10;;;8.13;40.04;98366.44;5067100;28;20044;-37
2021/03/27 09:53:34;;;;;;;1.10;0.90;;;8.30;45.00;;;8.38;40.71;98383.78;5065326;28;20043;-37
2021/03/27 09:56:33;;;;;;;1.43;0.87;;;8.50;45.70;;;8.43;39.05;98384.25;5081730;28;20044;-37
2021/03/27 09:59:31;;;;;;;4.97;1.43;;;8.70;43.20;;;8.55;39.30;98383.25;5065328;28;20048;-36
2021/03/27 10:02:17;;;;;;;2.90;0.83;;;8.70;43.70;;;8.67;40.71;98390.16;5065583;28;20046;-36
2021/03/27 10:05:35;;;;;;;1.73;0.87;;;8.80;45.40;;;8.79;39.54;98393.56;5082559;28;20048;-36
2021/03/27 10:08:27;;;;;;;1.97;0.97;;;9.00;45.20;;;8.96;41.65;98386.81;5082346;28;20220;-37
2021/03/27 10:11:00;;;;;;;0.40;0.40;;;9.20;46.80;;;8.98;41.24;98392.00;5064605;28;20227;-37
2021/03/27 10:14:10;;;;;;;1.70;0.82;;;9.20;45.90;;;8.95;39.76;98395.72;5082012;28;20265;-37
2021/03/27 10:17:24;;;;;;;1.60;0.77;;;9.20;44.00;;;9.09;40.19;98413.13;5065423;28;20056;-37
2021/03/27 10:20:50;;;;;;;1.63;1.30;;;9.30;45.20;;;9.05;39.31;98406.41;5081664;28;20047;-37
2021/03/27 10:23:39;;;;;;;2.47;1.53;;;9.20;44.00;;;9.22;40.44;98394.31;5067677;28;20059;-37
2021/03/27 10:26:32;;;;;;;2.27;1.30;;;9.40;45.80;;;9.29;39.65;98408.75;5065279;28;20257;-37
2021/03/27 10:29:44;;;;;;;1.67;1.00;;;9.50;44.90;;;9.35;40.28;98402.06;5080987;28;20062;-37
2021/03/27 10:32:32;;;;;;;3.40;1.20;;;9.50;45.10;;;9.32;38.99;98404.97;5079717;28;20063;-37
2021/03/27 10:35:20;;;;;;;1.37;1.20;;;9.50;43.50;;;9.38;38.64;98423.03;5052315;28;20056;-37
2021/03/27 10:38:12;;;;;;;1.27;0.73;;;9.60;43.30;;;9.39;37.55;98411.44;5063112;28;20052;-35
2021/03/27 10:40:45;;;;;;;4.47;0.93;;;9.60;41.60;;;9.38;37.99;98420.38;5075964;28;20254;-36
2021/03/27 10:43:44;;;;;;;2.15;1.00;;;9.60;42.80;;;9.36;37.66;98433.78;5080017;28;20055;-36
2021/03/27 10:46:37;;;;;;;2.70;1.00;;;9.50;43.00;;;9.39;38.02;98422.06;5068022;28;20266;-36
2021/03/27 10:49:14;;;;;;;2.27;1.20;;;9.50;42.40;;;9.47;38.96;98432.88;5064556;28;20387;-37
2021/03/27 10:52:06;;;;;;;3.97;1.20;;;9.60;43.70;;;9.52;38.93;98424.47;5080866;28;20058;-37
2021/03/27 10:55:48;;;;;;;1.83;1.10;;;9.60;43.80;;;9.53;38.75;98424.34;5071624;28;20063;-37
2021/03/27 10:58:34;;;;;;;1.90;1.20;;;9.70;43.80;;;9.52;38.32;98422.69;5018412;28;20064;-37
2021/03/27 11:01:27;;;;;;;1.73;0.90;;;9.70;43.10;;;9.49;37.92;98414.97;5037202;28;20052;-36
2021/03/27 11:04:57;;;;;;;2.27;1.03;;;9.60;43.10;;;9.22;37.52;98427.03;5058922;28;20055;-36
2021/03/27 11:08:10;;;;;;;5.40;1.67;;;9.30;42.20;;;9.27;37.90;98432.78;5042634;28;20274;-36
2021/03/27 11:11:29;;;;;;;1.07;0.90;;;9.30;42.90;;;9.20;38.40;98444.09;5058548;28;20173;-36
2021/03/27 11:14:45;;;;;;;2.53;1.10;;;9.40;44.00;;;9.38;38.95;98431.00;5060349;28;20061;-36
2021/03/27 11:17:53;;;;;;;5.57;1.47;;;9.60;44.10;;;9.59;38.11;98423.78;5060705;28;20048;-36
2021/03/27 11:20:57;;;;;;;2.90;1.73;;;9.90;43.40;;;9.68;37.18;98423.97;5061054;28;20071;-37
2021/03/27 11:24:21;;;;;;;1.70;0.93;;;9.90;42.00;;;9.66;36.89;98424.09;5060656;28;20059;-36
2021/03/27 11:27:27;;;;;;;3.07;1.20;;;9.90;41.00;;;9.67;36.85;98431.09;5046213;28;20059;-36
2021/03/27 11:30:34;;;;;;;3.03;0.90;;;9.90;41.40;;;9.79;37.70;98422.03;5052652;28;20052;-36
2021/03/27 11:33:54;;;;;;;2.67;1.20;;;9.90;42.40;;;9.79;36.92;98431.81;5080592;28;20110;-36
2021/03/27 11:36:37;;;;;;;1.33;1.03;;;9.90;41.80;;;9.86;36.92;98444.44;5002845;28;20372;-37
2021/03/27 11:39:39;;;;;;;2.20;1.23;;;10.10;41.80;;;9.64;36.79;98432.22;5063894;28;20060;-36
2021/03/27 11:42:21;;;;;;;2.90;1.10;;;9.90;41.50;;;9.62;37.42;98438.66;5050116;28;20247;-38
2021/03/27 11:45:12;;;;;;;2.37;2.17;;;9.80;42.40;;;9.51;37.20;98444.06;5080875;28;20055;-37
2021/03/27 11:48:25;;;;;;;2.20;1.23;;;9.70;41.90;;;9.58;37.86;98443.41;5060122;28;20216;-37
2021/03/27 11:51:19;;;;;;;2.70;1.30;;;9.60;43.10;;;9.66;38.08;98429.44;5036324;28;20066;-37
2021/03/27 11:53:51;;;;;;;4.23;1.03;;;9.70;43.30;;;9.71;37.96;98423.69;5061358;28;20292;-37
2021/03/27 11:56:43;;;;;;;4.20;1.43;;;9.80;42.60;;;9.79;37.97;98421.19;5080460;28;20060;-37
2021/03/27 12:02:40;;;;;;;2.20;0.80;;;10.10;42.00;;;9.96;37.48;98425.00;5078008;28;20249;-37
2021/03/27 12:05:14;;;;;;;2.73;1.63;;;10.20;41.60;;;10.00;37.09;98419.28;5080218;28;20054;-37
2021/03/27 12:08:04;;;;;;;;;;;10.30;41.20;;;10.09;36.81;98449.50;5081361;28;20051;-37
2021/03/27 12:11:03;;;;;;;1.47;1.00;;;10.40;40.70;;;10.17;36.01;98431.03;5072796;28;19923;-37
2021/03/27 12:14:03;;;;;;;1.60;0.97;;;10.60;40.00;;;10.39;35.91;98418.44;5058376;28;20260;-37
2021/03/27 12:17:12;;;;;;;5.73;1.10;;;10.70;40.20;;;10.33;35.54;98424.34;5073953;28;20052;-37
2021/03/27 12:20:13;;;;;;;2.43;0.93;;;10.70;38.90;;;10.23;36.37;98416.31;5050795;28;20060;-37
2021/03/27 12:22:47;;;;;;;1.40;0.97;;;10.50;40.60;;;10.26;36.49;98424.03;5074430;28;20055;-36
2021/03/27 12:25:56;;;;;;;2.43;0.90;;;10.50;40.80;;;10.21;35.13;98420.94;5039148;28;20063;-36
2021/03/27 12:28:49;;;;;;;5.43;1.00;;;10.60;39.10;;;10.42;35.14;98428.81;5072548;28;20366;-37